sensor_id;sensor_type;location;lat;lon;timestamp;temperature;humidity
66013;DHT22;52783;50.502;8.190;2023-04-03T00:00:22;4.60;99.90
66013;DHT22;52783;50.502;8.190;2023-04-03T00:02:47;4.70;99.90
66013;DHT22;52783;50.502;8.190;2023-04-03T00:05:13;4.70;99.90
66013;DHT22;52783;50.502;8.190;2023-04-03T00:07:38;4.60;99.90
66013;DHT22;52783;50.502;8.190;2023-04-03T00:10:04;4.60;99.90
66013;DHT22;52783;50.502;8.190;2023-04-03T00:12:30;4.70;99.90
66013;DHT22;52783;50.502;8.190;2023-04-03T00:14:56;4.70;99.90
66013;DHT22;52783;50.502;8.190;2023-04-03T00:17:21;4.70;99.90
66013;DHT22;52783;50.502;8.190;2023-04-03T00:19:46;4.70;99.90
66013;DHT22;52783;50.502;8.190;2023-04-03T00:22:12;4.70;99.90
66013;DHT22;52783;50.502;8.190;2023-04-03T00:24:37;4.60;99.90
66013;DHT22;52783;50.502;8.190;2023-04-03T00:27:03;4.60;99.90
66013;DHT22;52783;50.502;8.190;2023-04-03T00:29:28;4.70;99.90
66013;DHT22;52783;50.502;8.190;2023-04-03T00:31:54;4.70;99.90
66013;DHT22;52783;50.502;8.190;2023-04-03T00:34:19;4.80;99.90
66013;DHT22;52783;50.502;8.190;2023-04-03T00:36:45;4.70;99.90
66013;DHT22;52783;50.502;8.190;2023-04-03T00:39:11;4.80;99.90
66013;DHT22;52783;50.502;8.190;2023-04-03T00:41:36;4.80;99.90
66013;DHT22;52783;50.502;8.190;2023-04-03T00:47:06;4.80;99.90
66013;DHT22;52783;50.502;8.190;2023-04-03T00:49:32;4.80;99.90
66013;DHT22;52783;50.502;8.190;2023-04-03T00:51:58;4.70;99.90
66013;DHT22;52783;50.502;8.190;2023-04-03T00:54:25;4.60;99.90
66013;DHT22;52783;50.502;8.190;2023-04-03T00:56:52;4.70;99.90
66013;DHT22;52783;50.502;8.190;2023-04-03T00:59:24;4.70;99.90
66013;DHT22;52783;50.502;8.190;2023-04-03T01:01:53;4.70;99.90
66013;DHT22;52783;50.502;8.190;2023-04-03T01:07:00;4.70;99.90
66013;DHT22;52783;50.502;8.190;2023-04-03T01:09:27;4.70;99.90
66013;DHT22;52783;50.502;8.190;2023-04-03T01:11:53;4.60;99.90
66013;DHT22;52783;50.502;8.190;2023-04-03T01:14:18;4.60;99.90
66013;DHT22;52783;50.502;8.190;2023-04-03T01:16:53;4.70;99.90
66013;DHT22;52783;50.502;8.190;2023-04-03T01:19:19;4.70;99.90
66013;DHT22;52783;50.502;8.190;2023-04-03T01:22:15;4.60;99.90
66013;DHT22;52783;50.502;8.190;2023-04-03T01:24:45;4.70;99.90
66013;DHT22;52783;50.502;8.190;2023-04-03T01:27:12;4.70;99.90
66013;DHT22;52783;50.502;8.190;2023-04-03T01:29:38;4.70;99.90
66013;DHT22;52783;50.502;8.190;2023-04-03T01:32:04;4.70;99.90
66013;DHT22;52783;50.502;8.190;2023-04-03T01:34:31;4.60;99.90
66013;DHT22;52783;50.502;8.190;2023-04-03T01:36:56;4.60;99.90
66013;DHT22;52783;50.502;8.190;2023-04-03T01:39:22;4.50;99.90
66013;DHT22;52783;50.502;8.190;2023-04-03T01:41:48;4.60;99.90
66013;DHT22;52783;50.502;8.190;2023-04-03T01:44:15;4.60;99.90
66013;DHT22;52783;50.502;8.190;2023-04-03T01:46:40;4.60;99.90
66013;DHT22;52783;50.502;8.190;2023-04-03T01:49:07;4.70;99.90
66013;DHT22;52783;50.502;8.190;2023-04-03T01:51:33;4.60;99.90
66013;DHT22;52783;50.502;8.190;2023-04-03T01:53:59;4.50;99.90
66013;DHT22;52783;50.502;8.190;2023-04-03T01:56:24;4.60;99.90
66013;DHT22;52783;50.502;8.190;2023-04-03T01:58:50;4.50;99.90
66013;DHT22;52783;50.502;8.190;2023-04-03T02:01:16;4.60;99.90
66013;DHT22;52783;50.502;8.190;2023-04-03T02:03:42;4.50;99.90
66013;DHT22;52783;50.502;8.190;2023-04-03T02:06:07;4.50;99.90
66013;DHT22;52783;50.502;8.190;2023-04-03T02:08:33;4.50;99.90
66013;DHT22;52783;50.502;8.190;2023-04-03T02:10:58;4.50;99.90
66013;DHT22;52783;50.502;8.190;2023-04-03T02:13:24;4.50;99.90
66013;DHT22;52783;50.502;8.190;2023-04-03T02:15:50;4.50;99.90
66013;DHT22;52783;50.502;8.190;2023-04-03T02:18:16;4.50;99.90
66013;DHT22;52783;50.502;8.190;2023-04-03T02:20:41;4.50;99.90
66013;DHT22;52783;50.502;8.190;2023-04-03T02:23:07;4.40;99.90
66013;DHT22;52783;50.502;8.190;2023-04-03T02:25:33;4.40;99.90
66013;DHT22;52783;50.502;8.190;2023-04-03T02:27:59;4.30;99.90
66013;DHT22;52783;50.502;8.190;2023-04-03T02:30:25;4.20;99.90
66013;DHT22;52783;50.502;8.190;2023-04-03T02:32:50;4.10;99.90
66013;DHT22;52783;50.502;8.190;2023-04-03T02:35:16;4.10;99.90
66013;DHT22;52783;50.502;8.190;2023-04-03T02:37:41;4.10;99.90
66013;DHT22;52783;50.502;8.190;2023-04-03T02:40:07;4.10;99.90
66013;DHT22;52783;50.502;8.190;2023-04-03T02:42:33;4.00;99.90
66013;DHT22;52783;50.502;8.190;2023-04-03T02:44:58;4.00;99.90
66013;DHT22;52783;50.502;8.190;2023-04-03T02:47:26;3.90;99.90
66013;DHT22;52783;50.502;8.190;2023-04-03T02:49:52;3.90;99.90
66013;DHT22;52783;50.502;8.190;2023-04-03T02:52:18;3.80;99.90
66013;DHT22;52783;50.502;8.190;2023-04-03T02:54:44;3.70;99.90
66013;DHT22;52783;50.502;8.190;2023-04-03T02:57:09;3.70;99.90
66013;DHT22;52783;50.502;8.190;2023-04-03T02:59:36;3.70;99.90
66013;DHT22;52783;50.502;8.190;2023-04-03T03:02:03;3.60;99.90
66013;DHT22;52783;50.502;8.190;2023-04-03T03:04:28;3.50;99.90
66013;DHT22;52783;50.502;8.190;2023-04-03T03:06:54;3.50;99.90
66013;DHT22;52783;50.502;8.190;2023-04-03T03:09:20;3.50;99.90
66013;DHT22;52783;50.502;8.190;2023-04-03T03:11:45;3.40;99.90
66013;DHT22;52783;50.502;8.190;2023-04-03T03:14:11;3.40;99.90
66013;DHT22;52783;50.502;8.190;2023-04-03T03:16:36;3.20;99.90
66013;DHT22;52783;50.502;8.190;2023-04-03T03:19:02;3.20;99.90
66013;DHT22;52783;50.502;8.190;2023-04-03T03:21:28;3.20;99.90
66013;DHT22;52783;50.502;8.190;2023-04-03T03:23:53;3.20;99.90
66013;DHT22;52783;50.502;8.190;2023-04-03T03:26:19;3.10;99.90
66013;DHT22;52783;50.502;8.190;2023-04-03T03:28:45;3.10;99.90
66013;DHT22;52783;50.502;8.190;2023-04-03T03:31:10;3.10;99.90
66013;DHT22;52783;50.502;8.190;2023-04-03T03:33:37;3.10;99.90
66013;DHT22;52783;50.502;8.190;2023-04-03T03:36:03;3.00;99.90
66013;DHT22;52783;50.502;8.190;2023-04-03T03:38:28;3.10;99.90
66013;DHT22;52783;50.502;8.190;2023-04-03T03:40:54;3.00;99.90
66013;DHT22;52783;50.502;8.190;2023-04-03T03:43:20;3.00;99.90
66013;DHT22;52783;50.502;8.190;2023-04-03T03:45:50;2.90;99.90
66013;DHT22;52783;50.502;8.190;2023-04-03T03:48:16;2.80;99.90
66013;DHT22;52783;50.502;8.190;2023-04-03T03:50:41;2.80;99.90
66013;DHT22;52783;50.502;8.190;2023-04-03T03:53:06;2.80;99.90
66013;DHT22;52783;50.502;8.190;2023-04-03T03:55:32;2.70;99.90
66013;DHT22;52783;50.502;8.190;2023-04-03T03:57:57;2.70;99.90
66013;DHT22;52783;50.502;8.190;2023-04-03T04:00:23;2.60;99.90
66013;DHT22;52783;50.502;8.190;2023-04-03T04:02:48;2.60;99.90
66013;DHT22;52783;50.502;8.190;2023-04-03T04:05:14;2.50;99.90
66013;DHT22;52783;50.502;8.190;2023-04-03T04:07:40;2.50;99.90
66013;DHT22;52783;50.502;8.190;2023-04-03T04:10:05;2.60;99.90
66013;DHT22;52783;50.502;8.190;2023-04-03T04:12:31;2.60;99.90
66013;DHT22;52783;50.502;8.190;2023-04-03T04:14:56;2.50;99.90
66013;DHT22;52783;50.502;8.190;2023-04-03T04:17:22;2.50;99.90
66013;DHT22;52783;50.502;8.190;2023-04-03T04:19:47;2.40;99.90
66013;DHT22;52783;50.502;8.190;2023-04-03T04:22:13;2.40;99.90
66013;DHT22;52783;50.502;8.190;2023-04-03T04:24:38;2.40;99.90
66013;DHT22;52783;50.502;8.190;2023-04-03T04:27:04;2.30;99.90
66013;DHT22;52783;50.502;8.190;2023-04-03T04:29:29;2.30;99.90
66013;DHT22;52783;50.502;8.190;2023-04-03T04:32:00;2.20;99.90
66013;DHT22;52783;50.502;8.190;2023-04-03T04:34:25;2.20;99.90
66013;DHT22;52783;50.502;8.190;2023-04-03T04:36:51;2.20;99.90
66013;DHT22;52783;50.502;8.190;2023-04-03T04:39:17;2.20;99.90
66013;DHT22;52783;50.502;8.190;2023-04-03T04:41:42;2.10;99.90
66013;DHT22;52783;50.502;8.190;2023-04-03T04:44:08;1.90;99.90
66013;DHT22;52783;50.502;8.190;2023-04-03T04:46:33;1.90;99.90
66013;DHT22;52783;50.502;8.190;2023-04-03T04:48:59;1.90;99.90
66013;DHT22;52783;50.502;8.190;2023-04-03T04:51:24;1.90;99.90
66013;DHT22;52783;50.502;8.190;2023-04-03T04:53:50;1.90;99.90
66013;DHT22;52783;50.502;8.190;2023-04-03T04:56:16;1.90;99.90
66013;DHT22;52783;50.502;8.190;2023-04-03T04:58:41;1.90;99.90
66013;DHT22;52783;50.502;8.190;2023-04-03T05:01:09;1.90;99.90
66013;DHT22;52783;50.502;8.190;2023-04-03T05:03:35;1.80;99.90
66013;DHT22;52783;50.502;8.190;2023-04-03T05:06:01;1.70;99.90
66013;DHT22;52783;50.502;8.190;2023-04-03T05:08:26;1.70;99.90
66013;DHT22;52783;50.502;8.190;2023-04-03T05:10:52;1.70;99.90
66013;DHT22;52783;50.502;8.190;2023-04-03T05:13:19;1.70;99.90
66013;DHT22;52783;50.502;8.190;2023-04-03T05:15:45;1.70;99.90
66013;DHT22;52783;50.502;8.190;2023-04-03T05:18:11;1.60;99.90
66013;DHT22;52783;50.502;8.190;2023-04-03T05:20:36;1.50;99.90
66013;DHT22;52783;50.502;8.190;2023-04-03T05:23:02;1.50;99.90
66013;DHT22;52783;50.502;8.190;2023-04-03T05:25:28;1.50;99.90
66013;DHT22;52783;50.502;8.190;2023-04-03T05:27:53;1.50;99.90
66013;DHT22;52783;50.502;8.190;2023-04-03T05:30:19;1.50;99.90
66013;DHT22;52783;50.502;8.190;2023-04-03T05:32:45;1.60;99.90
66013;DHT22;52783;50.502;8.190;2023-04-03T05:35:11;1.70;99.90
66013;DHT22;52783;50.502;8.190;2023-04-03T05:37:36;1.90;99.90
66013;DHT22;52783;50.502;8.190;2023-04-03T05:40:03;2.10;99.90
66013;DHT22;52783;50.502;8.190;2023-04-03T05:42:29;2.30;99.90
66013;DHT22;52783;50.502;8.190;2023-04-03T05:44:55;2.50;99.90
66013;DHT22;52783;50.502;8.190;2023-04-03T05:47:20;2.60;99.90
66013;DHT22;52783;50.502;8.190;2023-04-03T05:49:46;2.60;99.90
66013;DHT22;52783;50.502;8.190;2023-04-03T05:52:31;3.00;99.90
66013;DHT22;52783;50.502;8.190;2023-04-03T05:54:58;3.50;99.90
66013;DHT22;52783;50.502;8.190;2023-04-03T05:57:24;3.50;99.90
66013;DHT22;52783;50.502;8.190;2023-04-03T05:59:49;3.70;99.90
66013;DHT22;52783;50.502;8.190;2023-04-03T06:02:18;3.70;99.90
66013;DHT22;52783;50.502;8.190;2023-04-03T06:04:44;3.80;99.90
66013;DHT22;52783;50.502;8.190;2023-04-03T06:07:21;4.00;99.90
66013;DHT22;52783;50.502;8.190;2023-04-03T06:09:48;4.00;99.90
66013;DHT22;52783;50.502;8.190;2023-04-03T06:12:14;4.20;99.90
66013;DHT22;52783;50.502;8.190;2023-04-03T06:14:40;4.20;99.90
66013;DHT22;52783;50.502;8.190;2023-04-03T06:17:07;4.20;99.90
66013;DHT22;52783;50.502;8.190;2023-04-03T06:19:34;4.40;99.90
66013;DHT22;52783;50.502;8.190;2023-04-03T06:21:59;4.40;99.90
66013;DHT22;52783;50.502;8.190;2023-04-03T06:24:25;4.50;99.90
66013;DHT22;52783;50.502;8.190;2023-04-03T06:26:52;4.80;99.90
66013;DHT22;52783;50.502;8.190;2023-04-03T06:29:18;4.40;99.90
66013;DHT22;52783;50.502;8.190;2023-04-03T06:31:44;4.70;99.90
66013;DHT22;52783;50.502;8.190;2023-04-03T06:34:10;5.20;99.90
66013;DHT22;52783;50.502;8.190;2023-04-03T06:36:37;5.40;99.90
66013;DHT22;52783;50.502;8.190;2023-04-03T06:39:04;5.20;99.90
66013;DHT22;52783;50.502;8.190;2023-04-03T06:41:29;5.40;99.90
66013;DHT22;52783;50.502;8.190;2023-04-03T06:43:55;5.10;99.90
66013;DHT22;52783;50.502;8.190;2023-04-03T06:46:25;5.40;99.90
66013;DHT22;52783;50.502;8.190;2023-04-03T06:48:50;5.90;99.90
66013;DHT22;52783;50.502;8.190;2023-04-03T06:51:35;6.10;99.90
66013;DHT22;52783;50.502;8.190;2023-04-03T06:54:01;5.80;99.90
66013;DHT22;52783;50.502;8.190;2023-04-03T06:56:28;6.00;99.90
66013;DHT22;52783;50.502;8.190;2023-04-03T06:58:54;6.10;99.90
66013;DHT22;52783;50.502;8.190;2023-04-03T07:01:23;6.10;99.90
66013;DHT22;52783;50.502;8.190;2023-04-03T07:03:49;6.20;99.90
66013;DHT22;52783;50.502;8.190;2023-04-03T07:06:16;5.90;99.90
66013;DHT22;52783;50.502;8.190;2023-04-03T07:08:42;6.30;99.90
66013;DHT22;52783;50.502;8.190;2023-04-03T07:11:08;6.20;99.90
66013;DHT22;52783;50.502;8.190;2023-04-03T07:13:34;5.50;99.90
66013;DHT22;52783;50.502;8.190;2023-04-03T07:16:00;5.20;99.90
66013;DHT22;52783;50.502;8.190;2023-04-03T07:18:26;4.50;99.90
66013;DHT22;52783;50.502;8.190;2023-04-03T07:20:52;5.60;99.90
66013;DHT22;52783;50.502;8.190;2023-04-03T07:23:18;5.00;99.90
66013;DHT22;52783;50.502;8.190;2023-04-03T07:25:45;4.90;99.90
66013;DHT22;52783;50.502;8.190;2023-04-03T07:28:11;5.10;99.90
66013;DHT22;52783;50.502;8.190;2023-04-03T07:30:43;5.00;99.90
66013;DHT22;52783;50.502;8.190;2023-04-03T07:33:08;3.70;99.90
66013;DHT22;52783;50.502;8.190;2023-04-03T07:35:34;3.30;99.90
66013;DHT22;52783;50.502;8.190;2023-04-03T07:37:59;4.00;99.90
66013;DHT22;52783;50.502;8.190;2023-04-03T07:40:25;4.80;99.90
66013;DHT22;52783;50.502;8.190;2023-04-03T07:42:51;5.40;99.90
66013;DHT22;52783;50.502;8.190;2023-04-03T07:45:16;5.60;99.90
66013;DHT22;52783;50.502;8.190;2023-04-03T07:47:42;5.60;99.90
66013;DHT22;52783;50.502;8.190;2023-04-03T07:50:08;5.60;99.90
66013;DHT22;52783;50.502;8.190;2023-04-03T07:52:33;5.50;99.90
66013;DHT22;52783;50.502;8.190;2023-04-03T07:54:59;5.80;99.90
66013;DHT22;52783;50.502;8.190;2023-04-03T07:57:24;6.10;99.90
66013;DHT22;52783;50.502;8.190;2023-04-03T07:59:50;6.50;99.90
66013;DHT22;52783;50.502;8.190;2023-04-03T08:02:15;7.20;99.90
66013;DHT22;52783;50.502;8.190;2023-04-03T08:04:41;6.30;99.90
66013;DHT22;52783;50.502;8.190;2023-04-03T08:07:07;6.50;99.90
66013;DHT22;52783;50.502;8.190;2023-04-03T08:09:33;6.10;99.90
66013;DHT22;52783;50.502;8.190;2023-04-03T08:11:58;6.70;99.90
66013;DHT22;52783;50.502;8.190;2023-04-03T08:14:24;7.30;99.90
66013;DHT22;52783;50.502;8.190;2023-04-03T08:16:50;7.70;99.90
66013;DHT22;52783;50.502;8.190;2023-04-03T08:19:15;6.20;99.90
66013;DHT22;52783;50.502;8.190;2023-04-03T08:21:43;6.70;99.90
66013;DHT22;52783;50.502;8.190;2023-04-03T08:24:09;6.10;99.90
66013;DHT22;52783;50.502;8.190;2023-04-03T08:26:35;6.90;99.90
66013;DHT22;52783;50.502;8.190;2023-04-03T08:29:01;5.80;99.90
66013;DHT22;52783;50.502;8.190;2023-04-03T08:31:27;5.60;99.90
66013;DHT22;52783;50.502;8.190;2023-04-03T08:33:53;6.00;99.90
66013;DHT22;52783;50.502;8.190;2023-04-03T08:38:46;5.50;99.90
66013;DHT22;52783;50.502;8.190;2023-04-03T08:44:10;5.60;99.90
66013;DHT22;52783;50.502;8.190;2023-04-03T08:47:02;5.20;99.90
66013;DHT22;52783;50.502;8.190;2023-04-03T08:49:44;5.10;99.90
66013;DHT22;52783;50.502;8.190;2023-04-03T08:52:17;5.70;99.90
66013;DHT22;52783;50.502;8.190;2023-04-03T08:54:57;5.10;99.90
66013;DHT22;52783;50.502;8.190;2023-04-03T08:57:34;5.50;99.90
66013;DHT22;52783;50.502;8.190;2023-04-03T09:00:09;6.10;99.90
66013;DHT22;52783;50.502;8.190;2023-04-03T09:02:50;5.20;99.90
66013;DHT22;52783;50.502;8.190;2023-04-03T09:05:19;4.90;99.90
66013;DHT22;52783;50.502;8.190;2023-04-03T09:07:49;4.80;99.90
66013;DHT22;52783;50.502;8.190;2023-04-03T09:10:24;4.90;99.90
66013;DHT22;52783;50.502;8.190;2023-04-03T09:13:04;5.80;99.90
66013;DHT22;52783;50.502;8.190;2023-04-03T09:15:32;5.40;99.90
66013;DHT22;52783;50.502;8.190;2023-04-03T09:18:06;5.90;99.90
66013;DHT22;52783;50.502;8.190;2023-04-03T09:23:24;6.60;99.90
66013;DHT22;52783;50.502;8.190;2023-04-03T09:25:54;6.60;99.90
66013;DHT22;52783;50.502;8.190;2023-04-03T09:28:21;6.90;99.90
66013;DHT22;52783;50.502;8.190;2023-04-03T09:30:47;6.90;99.90
66013;DHT22;52783;50.502;8.190;2023-04-03T09:33:14;5.90;99.90
66013;DHT22;52783;50.502;8.190;2023-04-03T09:35:40;5.50;99.90
66013;DHT22;52783;50.502;8.190;2023-04-03T09:40:43;6.40;99.90
66013;DHT22;52783;50.502;8.190;2023-04-03T09:43:24;6.40;99.90
66013;DHT22;52783;50.502;8.190;2023-04-03T09:45:51;6.60;99.90
66013;DHT22;52783;50.502;8.190;2023-04-03T09:48:24;8.00;99.90
66013;DHT22;52783;50.502;8.190;2023-04-03T09:53:35;7.60;99.90
66013;DHT22;52783;50.502;8.190;2023-04-03T09:56:09;6.90;99.90
66013;DHT22;52783;50.502;8.190;2023-04-03T10:01:30;5.60;99.90
66013;DHT22;52783;50.502;8.190;2023-04-03T10:06:31;4.30;99.90
66013;DHT22;52783;50.502;8.190;2023-04-03T10:09:03;4.20;99.90
66013;DHT22;52783;50.502;8.190;2023-04-03T10:11:30;4.50;99.90
66013;DHT22;52783;50.502;8.190;2023-04-03T10:13:58;4.90;99.90
66013;DHT22;52783;50.502;8.190;2023-04-03T10:16:38;5.10;99.90
66013;DHT22;52783;50.502;8.190;2023-04-03T10:19:31;4.30;99.90
66013;DHT22;52783;50.502;8.190;2023-04-03T10:22:12;4.90;99.90
66013;DHT22;52783;50.502;8.190;2023-04-03T10:24:51;5.00;99.90
66013;DHT22;52783;50.502;8.190;2023-04-03T10:27:43;4.70;99.90
66013;DHT22;52783;50.502;8.190;2023-04-03T10:33:49;5.10;99.90
66013;DHT22;52783;50.502;8.190;2023-04-03T10:38:20;4.80;99.90
66013;DHT22;52783;50.502;8.190;2023-04-03T10:40:59;4.80;99.90
66013;DHT22;52783;50.502;8.190;2023-04-03T10:43:40;5.10;99.90
66013;DHT22;52783;50.502;8.190;2023-04-03T10:46:13;5.40;99.90
66013;DHT22;52783;50.502;8.190;2023-04-03T10:52:03;4.90;99.90
66013;DHT22;52783;50.502;8.190;2023-04-03T10:57:28;5.00;99.90
66013;DHT22;52783;50.502;8.190;2023-04-03T10:59:58;4.90;99.90
66013;DHT22;52783;50.502;8.190;2023-04-03T11:02:31;5.20;99.90
66013;DHT22;52783;50.502;8.190;2023-04-03T11:05:31;5.60;99.90
66013;DHT22;52783;50.502;8.190;2023-04-03T11:08:04;5.30;99.90
66013;DHT22;52783;50.502;8.190;2023-04-03T11:10:40;5.20;99.90
66013;DHT22;52783;50.502;8.190;2023-04-03T11:13:49;5.30;99.90
66013;DHT22;52783;50.502;8.190;2023-04-03T11:16:23;4.90;99.90
66013;DHT22;52783;50.502;8.190;2023-04-03T11:18:54;5.50;99.90
66013;DHT22;52783;50.502;8.190;2023-04-03T11:21:32;5.10;99.90
66013;DHT22;52783;50.502;8.190;2023-04-03T11:24:03;5.20;99.90
66013;DHT22;52783;50.502;8.190;2023-04-03T11:26:36;5.00;99.90
66013;DHT22;52783;50.502;8.190;2023-04-03T11:29:08;5.30;99.90
66013;DHT22;52783;50.502;8.190;2023-04-03T11:34:40;5.20;99.90
66013;DHT22;52783;50.502;8.190;2023-04-03T11:37:25;5.20;99.90
66013;DHT22;52783;50.502;8.190;2023-04-03T11:39:58;5.40;99.90
66013;DHT22;52783;50.502;8.190;2023-04-03T11:42:35;5.30;99.90
66013;DHT22;52783;50.502;8.190;2023-04-03T11:45:25;5.60;99.90
66013;DHT22;52783;50.502;8.190;2023-04-03T11:50:59;5.70;99.90
66013;DHT22;52783;50.502;8.190;2023-04-03T11:53:26;5.50;99.90
66013;DHT22;52783;50.502;8.190;2023-04-03T12:01:56;5.90;99.90
66013;DHT22;52783;50.502;8.190;2023-04-03T12:04:25;6.00;99.90
66013;DHT22;52783;50.502;8.190;2023-04-03T12:07:11;6.10;99.90
66013;DHT22;52783;50.502;8.190;2023-04-03T12:14:54;5.80;99.90
66013;DHT22;52783;50.502;8.190;2023-04-03T12:17:25;5.80;99.90
66013;DHT22;52783;50.502;8.190;2023-04-03T12:19:52;6.30;99.90
66013;DHT22;52783;50.502;8.190;2023-04-03T12:22:20;6.60;99.90
66013;DHT22;52783;50.502;8.190;2023-04-03T12:24:50;6.10;99.90
66013;DHT22;52783;50.502;8.190;2023-04-03T12:32:43;6.60;99.90
66013;DHT22;52783;50.502;8.190;2023-04-03T12:35:19;6.30;99.90
66013;DHT22;52783;50.502;8.190;2023-04-03T12:46:45;6.20;99.90
66013;DHT22;52783;50.502;8.190;2023-04-03T12:49:39;6.00;99.90
66013;DHT22;52783;50.502;8.190;2023-04-03T12:52:23;6.90;99.90
66013;DHT22;52783;50.502;8.190;2023-04-03T12:54:53;7.00;99.90
66013;DHT22;52783;50.502;8.190;2023-04-03T12:57:22;6.60;99.90
66013;DHT22;52783;50.502;8.190;2023-04-03T12:59:49;6.60;99.90
66013;DHT22;52783;50.502;8.190;2023-04-03T13:02:22;6.70;99.90
66013;DHT22;52783;50.502;8.190;2023-04-03T13:04:50;6.70;99.90
66013;DHT22;52783;50.502;8.190;2023-04-03T13:07:34;6.80;99.90
66013;DHT22;52783;50.502;8.190;2023-04-03T13:12:56;6.10;99.90
66013;DHT22;52783;50.502;8.190;2023-04-03T13:17:49;6.40;99.90
66013;DHT22;52783;50.502;8.190;2023-04-03T13:20:31;6.40;99.90
66013;DHT22;52783;50.502;8.190;2023-04-03T13:23:05;6.50;99.90
66013;DHT22;52783;50.502;8.190;2023-04-03T13:25:36;6.80;99.90
66013;DHT22;52783;50.502;8.190;2023-04-03T13:28:05;6.40;99.90
66013;DHT22;52783;50.502;8.190;2023-04-03T13:30:34;6.50;99.90
66013;DHT22;52783;50.502;8.190;2023-04-03T13:33:05;6.60;99.90
66013;DHT22;52783;50.502;8.190;2023-04-03T13:35:40;7.00;99.90
66013;DHT22;52783;50.502;8.190;2023-04-03T13:38:23;6.80;99.90
66013;DHT22;52783;50.502;8.190;2023-04-03T13:40:55;6.80;99.90
66013;DHT22;52783;50.502;8.190;2023-04-03T13:43:24;6.60;99.90
66013;DHT22;52783;50.502;8.190;2023-04-03T13:46:00;6.80;99.90
66013;DHT22;52783;50.502;8.190;2023-04-03T13:48:27;6.40;99.90
66013;DHT22;52783;50.502;8.190;2023-04-03T13:53:46;6.50;99.90
66013;DHT22;52783;50.502;8.190;2023-04-03T13:58:54;6.50;99.90
66013;DHT22;52783;50.502;8.190;2023-04-03T14:01:22;6.30;99.90
66013;DHT22;52783;50.502;8.190;2023-04-03T14:04:00;6.20;99.90
66013;DHT22;52783;50.502;8.190;2023-04-03T14:06:27;6.70;99.90
66013;DHT22;52783;50.502;8.190;2023-04-03T14:08:53;6.60;99.90
66013;DHT22;52783;50.502;8.190;2023-04-03T14:11:24;6.50;99.90
66013;DHT22;52783;50.502;8.190;2023-04-03T14:13:52;6.50;99.90
66013;DHT22;52783;50.502;8.190;2023-04-03T14:16:22;6.40;99.90
66013;DHT22;52783;50.502;8.190;2023-04-03T14:18:50;6.40;99.90
66013;DHT22;52783;50.502;8.190;2023-04-03T14:21:17;6.60;99.90
66013;DHT22;52783;50.502;8.190;2023-04-03T14:23:44;6.60;99.90
66013;DHT22;52783;50.502;8.190;2023-04-03T14:26:22;6.90;99.90
66013;DHT22;52783;50.502;8.190;2023-04-03T14:28:52;6.70;99.90
66013;DHT22;52783;50.502;8.190;2023-04-03T14:31:19;7.10;99.90
66013;DHT22;52783;50.502;8.190;2023-04-03T14:33:46;7.30;99.90
66013;DHT22;52783;50.502;8.190;2023-04-03T14:38:42;6.70;99.90
66013;DHT22;52783;50.502;8.190;2023-04-03T14:41:14;6.60;99.90
66013;DHT22;52783;50.502;8.190;2023-04-03T14:43:40;6.40;99.90
66013;DHT22;52783;50.502;8.190;2023-04-03T14:46:20;6.70;99.90
66013;DHT22;52783;50.502;8.190;2023-04-03T14:48:46;6.90;99.90
66013;DHT22;52783;50.502;8.190;2023-04-03T14:51:14;6.70;99.90
66013;DHT22;52783;50.502;8.190;2023-04-03T14:53:42;6.80;99.90
66013;DHT22;52783;50.502;8.190;2023-04-03T14:56:21;6.90;99.90
66013;DHT22;52783;50.502;8.190;2023-04-03T14:58:49;7.00;99.90
66013;DHT22;52783;50.502;8.190;2023-04-03T15:01:17;7.00;99.90
66013;DHT22;52783;50.502;8.190;2023-04-03T15:03:42;7.20;99.90
66013;DHT22;52783;50.502;8.190;2023-04-03T15:06:12;6.70;99.90
66013;DHT22;52783;50.502;8.190;2023-04-03T15:08:38;6.80;99.90
66013;DHT22;52783;50.502;8.190;2023-04-03T15:11:06;7.00;99.90
66013;DHT22;52783;50.502;8.190;2023-04-03T15:13:32;7.10;99.90
66013;DHT22;52783;50.502;8.190;2023-04-03T15:15:57;7.00;99.90
66013;DHT22;52783;50.502;8.190;2023-04-03T15:18:26;7.10;99.90
66013;DHT22;52783;50.502;8.190;2023-04-03T15:20:54;6.90;99.90
66013;DHT22;52783;50.502;8.190;2023-04-03T15:23:20;6.90;99.90
66013;DHT22;52783;50.502;8.190;2023-04-03T15:25:47;7.10;99.90
66013;DHT22;52783;50.502;8.190;2023-04-03T15:28:40;7.00;99.90
66013;DHT22;52783;50.502;8.190;2023-04-03T15:31:04;7.00;99.90
66013;DHT22;52783;50.502;8.190;2023-04-03T15:33:31;6.80;99.90
66013;DHT22;52783;50.502;8.190;2023-04-03T15:35:58;6.90;99.90
66013;DHT22;52783;50.502;8.190;2023-04-03T15:38:23;6.70;99.90
66013;DHT22;52783;50.502;8.190;2023-04-03T15:40:49;6.70;99.90
66013;DHT22;52783;50.502;8.190;2023-04-03T15:43:15;6.90;99.90
66013;DHT22;52783;50.502;8.190;2023-04-03T15:45:41;6.90;99.90
66013;DHT22;52783;50.502;8.190;2023-04-03T15:48:07;7.10;99.90
66013;DHT22;52783;50.502;8.190;2023-04-03T15:50:34;7.10;99.90
66013;DHT22;52783;50.502;8.190;2023-04-03T15:53:00;7.30;99.90
66013;DHT22;52783;50.502;8.190;2023-04-03T15:55:31;7.10;99.90
66013;DHT22;52783;50.502;8.190;2023-04-03T15:57:57;7.00;99.90
66013;DHT22;52783;50.502;8.190;2023-04-03T16:00:24;6.90;99.90
66013;DHT22;52783;50.502;8.190;2023-04-03T16:02:53;6.90;99.90
66013;DHT22;52783;50.502;8.190;2023-04-03T16:05:19;6.50;99.90
66013;DHT22;52783;50.502;8.190;2023-04-03T16:07:45;6.40;99.90
66013;DHT22;52783;50.502;8.190;2023-04-03T16:10:12;6.40;99.90
66013;DHT22;52783;50.502;8.190;2023-04-03T16:12:38;6.30;99.90
66013;DHT22;52783;50.502;8.190;2023-04-03T16:15:04;6.40;99.90
66013;DHT22;52783;50.502;8.190;2023-04-03T16:17:32;6.60;99.90
66013;DHT22;52783;50.502;8.190;2023-04-03T16:19:59;6.70;99.90
66013;DHT22;52783;50.502;8.190;2023-04-03T16:22:26;6.80;99.90
66013;DHT22;52783;50.502;8.190;2023-04-03T16:24:53;6.80;99.90
66013;DHT22;52783;50.502;8.190;2023-04-03T16:27:19;6.60;99.90
66013;DHT22;52783;50.502;8.190;2023-04-03T16:29:44;6.40;99.90
66013;DHT22;52783;50.502;8.190;2023-04-03T16:32:11;6.60;99.90
66013;DHT22;52783;50.502;8.190;2023-04-03T16:34:37;6.60;99.90
66013;DHT22;52783;50.502;8.190;2023-04-03T16:37:03;6.80;99.90
66013;DHT22;52783;50.502;8.190;2023-04-03T16:39:28;6.90;99.90
66013;DHT22;52783;50.502;8.190;2023-04-03T16:41:54;6.50;99.90
66013;DHT22;52783;50.502;8.190;2023-04-03T16:44:19;6.50;99.90
66013;DHT22;52783;50.502;8.190;2023-04-03T16:46:45;6.40;99.90
66013;DHT22;52783;50.502;8.190;2023-04-03T16:49:10;6.40;99.90
66013;DHT22;52783;50.502;8.190;2023-04-03T16:51:51;6.40;99.90
66013;DHT22;52783;50.502;8.190;2023-04-03T16:54:16;6.40;99.90
66013;DHT22;52783;50.502;8.190;2023-04-03T16:56:42;6.50;99.90
66013;DHT22;52783;50.502;8.190;2023-04-03T16:59:07;6.20;99.90
66013;DHT22;52783;50.502;8.190;2023-04-03T17:01:33;6.20;99.90
66013;DHT22;52783;50.502;8.190;2023-04-03T17:03:58;6.10;99.90
66013;DHT22;52783;50.502;8.190;2023-04-03T17:06:24;6.20;99.90
66013;DHT22;52783;50.502;8.190;2023-04-03T17:08:51;6.20;99.90
66013;DHT22;52783;50.502;8.190;2023-04-03T17:11:18;6.10;99.90
66013;DHT22;52783;50.502;8.190;2023-04-03T17:13:44;5.90;99.90